sensor_id;sensor_type;location;lat;lon;timestamp;pressure;altitude;pressure_sealevel;temperature;humidity
62418;BME280;48456;54.242;10.280;2024-03-08T00:02:02;102305.16;;;-0.92;100.00
62418;BME280;48456;54.242;10.280;2024-03-08T00:04:29;102305.03;;;-0.93;100.00
62418;BME280;48456;54.242;10.280;2024-03-08T00:06:55;102311.16;;;-0.93;100.00
62418;BME280;48456;54.242;10.280;2024-03-08T00:09:22;102305.03;;;-0.93;100.00
62418;BME280;48456;54.242;10.280;2024-03-08T00:11:48;102303.38;;;-0.93;100.00
62418;BME280;48456;54.242;10.280;2024-03-08T00:14:16;102309.16;;;-0.97;100.00
62418;BME280;48456;54.242;10.280;2024-03-08T00:16:43;102309.84;;;-0.99;100.00
62418;BME280;48456;54.242;10.280;2024-03-08T00:19:10;102305.41;;;-1.00;100.00
62418;BME280;48456;54.242;10.280;2024-03-08T00:21:36;102304.53;;;-1.01;100.00
62418;BME280;48456;54.242;10.280;2024-03-08T00:24:03;102307.72;;;-1.05;100.00
62418;BME280;48456;54.242;10.280;2024-03-08T00:26:29;102309.13;;;-1.10;100.00
62418;BME280;48456;54.242;10.280;2024-03-08T00:28:56;102305.41;;;-1.14;100.00
62418;BME280;48456;54.242;10.280;2024-03-08T00:31:22;102304.28;;;-1.18;100.00
62418;BME280;48456;54.242;10.280;2024-03-08T00:33:49;102302.28;;;-1.22;100.00
62418;BME280;48456;54.242;10.280;2024-03-08T00:36:15;102309.06;;;-1.24;100.00
62418;BME280;48456;54.242;10.280;2024-03-08T00:38:42;102302.06;;;-1.25;100.00
62418;BME280;48456;54.242;10.280;2024-03-08T00:41:08;102302.66;;;-1.29;100.00
62418;BME280;48456;54.242;10.280;2024-03-08T00:43:35;102310.16;;;-1.34;100.00
62418;BME280;48456;54.242;10.280;2024-03-08T00:46:01;102298.16;;;-1.32;100.00
62418;BME280;48456;54.242;10.280;2024-03-08T00:48:28;102303.22;;;-1.33;100.00
62418;BME280;48456;54.242;10.280;2024-03-08T00:50:54;102298.03;;;-1.33;100.00
62418;BME280;48456;54.242;10.280;2024-03-08T00:53:21;102300.63;;;-1.33;100.00
62418;BME280;48456;54.242;10.280;2024-03-08T00:55:47;102298.72;;;-1.36;100.00
62418;BME280;48456;54.242;10.280;2024-03-08T00:58:14;102293.31;;;-1.39;100.00
62418;BME280;48456;54.242;10.280;2024-03-08T01:00:40;102293.91;;;-1.43;100.00
62418;BME280;48456;54.242;10.280;2024-03-08T01:03:07;102286.03;;;-1.45;100.00
62418;BME280;48456;54.242;10.280;2024-03-08T01:05:34;102276.31;;;-1.47;100.00
62418;BME280;48456;54.242;10.280;2024-03-08T01:08:01;102284.22;;;-1.46;100.00
62418;BME280;48456;54.242;10.280;2024-03-08T01:10:29;102274.41;;;-1.50;100.00
62418;BME280;48456;54.242;10.280;2024-03-08T01:12:56;102279.50;;;-1.51;100.00
62418;BME280;48456;54.242;10.280;2024-03-08T01:15:23;102268.94;;;-1.54;100.00
62418;BME280;48456;54.242;10.280;2024-03-08T01:17:49;102270.38;;;-1.58;100.00
62418;BME280;48456;54.242;10.280;2024-03-08T01:20:16;102264.22;;;-1.60;100.00
62418;BME280;48456;54.242;10.280;2024-03-08T01:22:44;102266.09;;;-1.58;100.00
62418;BME280;48456;54.242;10.280;2024-03-08T01:25:10;102262.72;;;-1.57;100.00
62418;BME280;48456;54.242;10.280;2024-03-08T01:27:37;102265.19;;;-1.58;100.00
62418;BME280;48456;54.242;10.280;2024-03-08T01:30:03;102258.09;;;-1.61;100.00
62418;BME280;48456;54.242;10.280;2024-03-08T01:32:30;102247.84;;;-1.59;100.00
62418;BME280;48456;54.242;10.280;2024-03-08T01:34:56;102243.78;;;-1.55;100.00
62418;BME280;48456;54.242;10.280;2024-03-08T01:37:23;102241.25;;;-1.54;100.00
62418;BME280;48456;54.242;10.280;2024-03-08T01:39:50;102235.06;;;-1.56;100.00
62418;BME280;48456;54.242;10.280;2024-03-08T01:42:16;102232.38;;;-1.58;100.00
62418;BME280;48456;54.242;10.280;2024-03-08T01:44:44;102235.88;;;-1.57;100.00
62418;BME280;48456;54.242;10.280;2024-03-08T01:47:10;102227.28;;;-1.56;100.00
62418;BME280;48456;54.242;10.280;2024-03-08T01:49:37;102226.09;;;-1.61;100.00
62418;BME280;48456;54.242;10.280;2024-03-08T01:52:04;102227.66;;;-1.63;100.00
62418;BME280;48456;54.242;10.280;2024-03-08T01:54:31;102219.75;;;-1.65;100.00
62418;BME280;48456;54.242;10.280;2024-03-08T01:56:57;102224.75;;;-1.68;100.00
62418;BME280;48456;54.242;10.280;2024-03-08T01:59:25;102210.66;;;-1.72;100.00
62418;BME280;48456;54.242;10.280;2024-03-08T02:01:54;102208.97;;;-1.71;100.00
62418;BME280;48456;54.242;10.280;2024-03-08T02:04:21;102208.06;;;-1.72;100.00
62418;BME280;48456;54.242;10.280;2024-03-08T02:06:48;102201.41;;;-1.68;100.00
62418;BME280;48456;54.242;10.280;2024-03-08T02:09:14;102209.28;;;-1.66;100.00
62418;BME280;48456;54.242;10.280;2024-03-08T02:11:41;102197.31;;;-1.64;100.00
62418;BME280;48456;54.242;10.280;2024-03-08T02:14:07;102192.13;;;-1.64;100.00
62418;BME280;48456;54.242;10.280;2024-03-08T02:16:34;102189.75;;;-1.61;100.00
62418;BME280;48456;54.242;10.280;2024-03-08T02:19:00;102183.66;;;-1.62;100.00
62418;BME280;48456;54.242;10.280;2024-03-08T02:21:27;102185.56;;;-1.59;100.00
62418;BME280;48456;54.242;10.280;2024-03-08T02:23:54;102179.47;;;-1.60;100.00
62418;BME280;48456;54.242;10.280;2024-03-08T02:26:21;102166.09;;;-1.52;100.00
62418;BME280;48456;54.242;10.280;2024-03-08T02:28:48;102168.31;;;-1.45;100.00
62418;BME280;48456;54.242;10.280;2024-03-08T02:31:15;102151.94;;;-1.31;100.00
62418;BME280;48456;54.242;10.280;2024-03-08T02:33:42;102157.47;;;-1.26;100.00
62418;BME280;48456;54.242;10.280;2024-03-08T02:36:09;102154.47;;;-1.19;100.00
62418;BME280;48456;54.242;10.280;2024-03-08T02:38:35;102161.84;;;-1.11;100.00
62418;BME280;48456;54.242;10.280;2024-03-08T02:41:02;102148.78;;;-0.99;100.00
62418;BME280;48456;54.242;10.280;2024-03-08T02:43:30;102148.38;;;-0.92;100.00
62418;BME280;48456;54.242;10.280;2024-03-08T02:45:56;102158.09;;;-0.89;100.00
62418;BME280;48456;54.242;10.280;2024-03-08T02:48:23;102155.06;;;-0.82;100.00
62418;BME280;48456;54.242;10.280;2024-03-08T02:50:50;102152.16;;;-0.73;100.00
62418;BME280;48456;54.242;10.280;2024-03-08T02:53:18;102149.94;;;-0.67;100.00
62418;BME280;48456;54.242;10.280;2024-03-08T02:55:45;102145.75;;;-0.65;100.00
62418;BME280;48456;54.242;10.280;2024-03-08T02:58:13;102144.34;;;-0.60;100.00
62418;BME280;48456;54.242;10.280;2024-03-08T03:00:41;102148.84;;;-0.57;100.00
62418;BME280;48456;54.242;10.280;2024-03-08T03:03:08;102143.13;;;-0.51;100.00
62418;BME280;48456;54.242;10.280;2024-03-08T03:05:34;102135.63;;;-0.47;100.00
62418;BME280;48456;54.242;10.280;2024-03-08T03:08:01;102140.19;;;-0.43;100.00
62418;BME280;48456;54.242;10.280;2024-03-08T03:10:30;102144.72;;;-0.40;100.00
62418;BME280;48456;54.242;10.280;2024-03-08T03:12:57;102145.06;;;-0.34;100.00
62418;BME280;48456;54.242;10.280;2024-03-08T03:15:24;102149.66;;;-0.30;100.00
62418;BME280;48456;54.242;10.280;2024-03-08T03:17:53;102145.63;;;-0.24;100.00
62418;BME280;48456;54.242;10.280;2024-03-08T03:20:20;102151.75;;;-0.24;100.00
62418;BME280;48456;54.242;10.280;2024-03-08T03:22:53;102151.84;;;-0.22;100.00
62418;BME280;48456;54.242;10.280;2024-03-08T03:25:19;102146.91;;;-0.18;100.00
62418;BME280;48456;54.242;10.280;2024-03-08T03:27:52;102146.31;;;-0.14;100.00
62418;BME280;48456;54.242;10.280;2024-03-08T03:30:18;102149.50;;;-0.04;100.00
62418;BME280;48456;54.242;10.280;2024-03-08T03:32:48;102146.34;;;0.02;100.00
62418;BME280;48456;54.242;10.280;2024-03-08T03:35:19;102138.81;;;0.06;100.00
62418;BME280;48456;54.242;10.280;2024-03-08T03:37:47;102149.53;;;0.11;100.00
62418;BME280;48456;54.242;10.280;2024-03-08T03:40:34;102148.97;;;0.17;100.00
62418;BME280;48456;54.242;10.280;2024-03-08T03:43:01;102141.25;;;0.18;100.00
62418;BME280;48456;54.242;10.280;2024-03-08T03:45:29;102144.06;;;0.21;100.00
62418;BME280;48456;54.242;10.280;2024-03-08T03:47:55;102147.63;;;0.23;100.00
62418;BME280;48456;54.242;10.280;2024-03-08T03:50:22;102144.97;;;0.22;100.00
62418;BME280;48456;54.242;10.280;2024-03-08T03:52:49;102140.81;;;0.25;100.00
62418;BME280;48456;54.242;10.280;2024-03-08T03:55:16;102142.00;;;0.31;100.00
62418;BME280;48456;54.242;10.280;2024-03-08T03:57:42;102141.91;;;0.29;100.00
62418;BME280;48456;54.242;10.280;2024-03-08T04:00:12;102142.00;;;0.31;100.00
62418;BME280;48456;54.242;10.280;2024-03-08T04:02:39;102138.56;;;0.32;100.00
62418;BME280;48456;54.242;10.280;2024-03-08T04:05:06;102143.09;;;0.34;100.00
62418;BME280;48456;54.242;10.280;2024-03-08T04:07:33;102136.97;;;0.34;100.00
62418;BME280;48456;54.242;10.280;2024-03-08T04:10:03;102137.06;;;0.35;100.00
62418;BME280;48456;54.242;10.280;2024-03-08T04:12:30;102135.34;;;0.36;100.00
62418;BME280;48456;54.242;10.280;2024-03-08T04:14:56;102127.81;;;0.41;100.00
62418;BME280;48456;54.242;10.280;2024-03-08T04:17:23;102125.94;;;0.38;100.00
62418;BME280;48456;54.242;10.280;2024-03-08T04:19:53;102125.13;;;0.39;100.00
62418;BME280;48456;54.242;10.280;2024-03-08T04:22:20;102123.53;;;0.41;100.00
62418;BME280;48456;54.242;10.280;2024-03-08T04:24:46;102127.19;;;0.45;100.00
62418;BME280;48456;54.242;10.280;2024-03-08T04:27:13;102122.81;;;0.44;100.00
62418;BME280;48456;54.242;10.280;2024-03-08T04:29:40;102127.19;;;0.45;100.00
62418;BME280;48456;54.242;10.280;2024-03-08T04:32:08;102122.97;;;0.47;100.00
62418;BME280;48456;54.242;10.280;2024-03-08T04:34:35;102122.81;;;0.44;100.00
62418;BME280;48456;54.242;10.280;2024-03-08T04:37:01;102125.41;;;0.44;100.00
62418;BME280;48456;54.242;10.280;2024-03-08T04:39:28;102125.41;;;0.44;100.00
62418;BME280;48456;54.242;10.280;2024-03-08T04:41:55;102122.00;;;0.45;100.00
62418;BME280;48456;54.242;10.280;2024-03-08T04:44:23;102125.50;;;0.45;100.00
62418;BME280;48456;54.242;10.280;2024-03-08T04:46:50;102124.59;;;0.45;100.00
62418;BME280;48456;54.242;10.280;2024-03-08T04:49:17;102122.00;;;0.45;100.00
62418;BME280;48456;54.242;10.280;2024-03-08T04:51:44;102117.69;;;0.45;100.00
62418;BME280;48456;54.242;10.280;2024-03-08T04:54:11;102122.81;;;0.44;100.00
62418;BME280;48456;54.242;10.280;2024-03-08T04:56:37;102118.84;;;0.50;100.00
62418;BME280;48456;54.242;10.280;2024-03-08T04:59:04;102122.44;;;0.52;100.00
62418;BME280;48456;54.242;10.280;2024-03-08T05:01:34;102117.41;;;0.56;100.00
62418;BME280;48456;54.242;10.280;2024-03-08T05:04:04;102120.00;;;0.56;100.00
62418;BME280;48456;54.242;10.280;2024-03-08T05:06:35;102113.00;;;0.55;100.00
62418;BME280;48456;54.242;10.280;2024-03-08T05:09:02;102117.31;;;0.54;100.00
62418;BME280;48456;54.242;10.280;2024-03-08T05:11:47;102123.63;;;0.58;100.00
62418;BME280;48456;54.242;10.280;2024-03-08T05:14:14;102115.25;;;0.63;100.00
62418;BME280;48456;54.242;10.280;2024-03-08T05:16:43;102115.25;;;0.63;100.00
62418;BME280;48456;54.242;10.280;2024-03-08T05:19:15;102110.84;;;0.62;100.00
62418;BME280;48456;54.242;10.280;2024-03-08T05:21:43;102116.97;;;0.63;100.00
62418;BME280;48456;54.242;10.280;2024-03-08T05:24:10;102103.94;;;0.63;100.00
62418;BME280;48456;54.242;10.280;2024-03-08T05:26:37;102110.84;;;0.62;100.00
62418;BME280;48456;54.242;10.280;2024-03-08T05:29:06;102109.97;;;0.62;100.00
62418;BME280;48456;54.242;10.280;2024-03-08T05:31:38;102103.03;;;0.62;100.00
62418;BME280;48456;54.242;10.280;2024-03-08T05:34:09;102098.00;;;0.66;100.00
62418;BME280;48456;54.242;10.280;2024-03-08T05:36:36;102101.78;;;0.71;100.00
62418;BME280;48456;54.242;10.280;2024-03-08T05:39:02;102104.47;;;0.72;100.00
62418;BME280;48456;54.242;10.280;2024-03-08T05:41:32;102103.56;;;0.72;100.00
62418;BME280;48456;54.242;10.280;2024-03-08T05:43:59;102107.16;;;0.74;100.00
62418;BME280;48456;54.242;10.280;2024-03-08T05:46:25;102106.25;;;0.73;100.00
62418;BME280;48456;54.242;10.280;2024-03-08T05:48:52;102102.03;;;0.75;100.00
62418;BME280;48456;54.242;10.280;2024-03-08T05:51:19;102102.19;;;0.78;100.00
62418;BME280;48456;54.242;10.280;2024-03-08T05:53:47;102112.78;;;0.82;100.00
62418;BME280;48456;54.242;10.280;2024-03-08T05:56:14;102100.69;;;0.82;100.00
62418;BME280;48456;54.242;10.280;2024-03-08T05:58:40;102106.78;;;0.83;100.00
62418;BME280;48456;54.242;10.280;2024-03-08T06:01:06;102112.25;;;0.87;100.00
62418;BME280;48456;54.242;10.280;2024-03-08T06:03:34;102106.94;;;0.86;100.00
62418;BME280;48456;54.242;10.280;2024-03-08T06:06:00;102102.56;;;0.85;100.00
62418;BME280;48456;54.242;10.280;2024-03-08T06:08:27;102107.88;;;0.86;100.00
62418;BME280;48456;54.242;10.280;2024-03-08T06:10:56;102103.72;;;0.90;100.00
62418;BME280;48456;54.242;10.280;2024-03-08T06:13:22;102109.00;;;0.92;100.00
62418;BME280;48456;54.242;10.280;2024-03-08T06:15:52;102098.59;;;0.92;100.00
62418;BME280;48456;54.242;10.280;2024-03-08T06:18:19;102095.06;;;0.91;100.00
62418;BME280;48456;54.242;10.280;2024-03-08T06:20:46;102088.72;;;0.86;100.00
62418;BME280;48456;54.242;10.280;2024-03-08T06:23:13;102089.00;;;0.90;100.00
62418;BME280;48456;54.242;10.280;2024-03-08T06:25:44;102096.81;;;0.90;100.00
62418;BME280;48456;54.242;10.280;2024-03-08T06:28:10;102091.69;;;0.92;100.00
62418;BME280;48456;54.242;10.280;2024-03-08T06:30:37;102090.69;;;0.90;100.00
62418;BME280;48456;54.242;10.280;2024-03-08T06:33:03;102095.66;;;0.85;100.00
62418;BME280;48456;54.242;10.280;2024-03-08T06:35:30;102090.16;;;0.81;100.00
62418;BME280;48456;54.242;10.280;2024-03-08T06:37:58;102096.34;;;0.83;100.00
62418;BME280;48456;54.242;10.280;2024-03-08T06:40:24;102094.97;;;0.89;100.00
62418;BME280;48456;54.242;10.280;2024-03-08T06:42:51;102091.84;;;0.95;100.00
62418;BME280;48456;54.242;10.280;2024-03-08T06:45:18;102092.91;;;0.99;100.00
62418;BME280;48456;54.242;10.280;2024-03-08T06:47:47;102099.19;;;1.02;100.00
62418;BME280;48456;54.242;10.280;2024-03-08T06:50:14;102102.06;;;1.07;100.00
62418;BME280;48456;54.242;10.280;2024-03-08T06:52:41;102099.47;;;1.07;100.00
62418;BME280;48456;54.242;10.280;2024-03-08T06:55:12;102096.13;;;1.10;100.00
62418;BME280;48456;54.242;10.280;2024-03-08T06:57:39;102088.41;;;1.11;100.00
62418;BME280;48456;54.242;10.280;2024-03-08T07:00:09;102086.75;;;1.13;100.00
62418;BME280;48456;54.242;10.280;2024-03-08T07:02:37;102096.38;;;1.14;100.00
62418;BME280;48456;54.242;10.280;2024-03-08T07:05:06;102088.72;;;1.17;100.00
62418;BME280;48456;54.242;10.280;2024-03-08T07:07:37;102090.69;;;1.22;100.00
62418;BME280;48456;54.242;10.280;2024-03-08T07:10:04;102090.88;;;1.25;100.00
62418;BME280;48456;54.242;10.280;2024-03-08T07:12:30;102092.81;;;1.29;100.00
62418;BME280;48456;54.242;10.280;2024-03-08T07:14:57;102096.66;;;1.36;100.00
62418;BME280;48456;54.242;10.280;2024-03-08T07:17:23;102092.50;;;1.39;100.00
62418;BME280;48456;54.242;10.280;2024-03-08T07:19:51;102097.63;;;1.38;100.00
62418;BME280;48456;54.242;10.280;2024-03-08T07:22:17;102089.34;;;1.45;100.00
62418;BME280;48456;54.242;10.280;2024-03-08T07:24:44;102094.38;;;1.42;100.00
62418;BME280;48456;54.242;10.280;2024-03-08T07:27:30;102093.81;;;1.48;100.00
62418;BME280;48456;54.242;10.280;2024-03-08T07:29:57;102096.69;;;1.52;100.00
62418;BME280;48456;54.242;10.280;2024-03-08T07:32:27;102090.91;;;1.58;100.00
62418;BME280;48456;54.242;10.280;2024-03-08T07:34:56;102092.69;;;1.59;100.00
62418;BME280;48456;54.242;10.280;2024-03-08T07:37:22;102085.75;;;1.60;100.00
62418;BME280;48456;54.242;10.280;2024-03-08T07:39:49;102088.44;;;1.61;100.00
62418;BME280;48456;54.242;10.280;2024-03-08T07:42:16;102090.31;;;1.80;100.00
62418;BME280;48456;54.242;10.280;2024-03-08T07:44:43;102091.03;;;1.94;100.00
62418;BME280;48456;54.242;10.280;2024-03-08T07:47:09;102088.81;;;2.02;100.00
62418;BME280;48456;54.242;10.280;2024-03-08T07:49:36;102091.25;;;2.16;100.00
62418;BME280;48456;54.242;10.280;2024-03-08T07:52:05;102091.88;;;2.28;100.00
62418;BME280;48456;54.242;10.280;2024-03-08T07:54:33;102091.28;;;2.34;100.00
62418;BME280;48456;54.242;10.280;2024-03-08T07:57:01;102090.56;;;2.37;100.00
62418;BME280;48456;54.242;10.280;2024-03-08T07:59:29;102091.94;;;2.30;100.00
62418;BME280;48456;54.242;10.280;2024-03-08T08:01:56;102094.06;;;2.37;100.00
62418;BME280;48456;54.242;10.280;2024-03-08T08:04:23;102091.03;;;2.46;100.00
62418;BME280;48456;54.242;10.280;2024-03-08T08:06:51;102090.88;;;2.61;100.00
62418;BME280;48456;54.242;10.280;2024-03-08T08:09:17;102094.09;;;2.73;100.00
62418;BME280;48456;54.242;10.280;2024-03-08T08:11:54;102093.34;;;2.76;100.00
62418;BME280;48456;54.242;10.280;2024-03-08T08:14:21;102100.28;;;2.76;100.00
62418;BME280;48456;54.242;10.280;2024-03-08T08:16:47;102100.22;;;2.56;100.00
62418;BME280;48456;54.242;10.280;2024-03-08T08:19:16;102098.41;;;2.37;100.00
62418;BME280;48456;54.242;10.280;2024-03-08T08:21:42;102105.53;;;2.23;100.00
62418;BME280;48456;54.242;10.280;2024-03-08T08:24:09;102099.22;;;2.19;100.00
62418;BME280;48456;54.242;10.280;2024-03-08T08:26:37;102099.19;;;2.17;100.00
62418;BME280;48456;54.242;10.280;2024-03-08T08:29:06;102104.03;;;2.28;100.00
62418;BME280;48456;54.242;10.280;2024-03-08T08:31:32;102104.09;;;2.46;100.00
62418;BME280;48456;54.242;10.280;2024-03-08T08:33:59;102105.66;;;2.60;100.00
62418;BME280;48456;54.242;10.280;2024-03-08T08:36:26;102105.97;;;2.67;100.00
62418;BME280;48456;54.242;10.280;2024-03-08T08:38:52;102105.50;;;2.57;100.00
62418;BME280;48456;54.242;10.280;2024-03-08T08:41:22;102106.59;;;2.44;100.00
62418;BME280;48456;54.242;10.280;2024-03-08T08:43:49;102097.28;;;2.50;100.00
62418;BME280;48456;54.242;10.280;2024-03-08T08:46:28;102099.38;;;2.57;100.00
62418;BME280;48456;54.242;10.280;2024-03-08T08:48:55;102093.50;;;2.61;100.00
62418;BME280;48456;54.242;10.280;2024-03-08T08:51:22;102094.38;;;2.62;100.00
62418;BME280;48456;54.242;10.280;2024-03-08T08:53:49;102094.69;;;2.68;100.00
62418;BME280;48456;54.242;10.280;2024-03-08T08:56:16;102082.00;;;2.76;100.00
62418;BME280;48456;54.242;10.280;2024-03-08T08:58:42;102080.97;;;2.90;100.00
62418;BME280;48456;54.242;10.280;2024-03-08T09:01:09;102073.69;;;3.03;100.00
62418;BME280;48456;54.242;10.280;2024-03-08T09:03:38;102074.94;;;3.11;100.00
62418;BME280;48456;54.242;10.280;2024-03-08T09:06:08;102075.16;;;3.16;100.00
62418;BME280;48456;54.242;10.280;2024-03-08T09:08:36;102069.03;;;3.15;100.00
62418;BME280;48456;54.242;10.280;2024-03-08T09:11:04;102074.31;;;3.17;100.00
62418;BME280;48456;54.242;10.280;2024-03-08T09:13:31;102073.16;;;3.10;100.00
62418;BME280;48456;54.242;10.280;2024-03-08T09:16:01;102066.13;;;3.09;100.00
62418;BME280;48456;54.242;10.280;2024-03-08T09:18:28;102061.13;;;3.14;100.00
62418;BME280;48456;54.242;10.280;2024-03-08T09:20:55;102067.81;;;3.27;100.00
62418;BME280;48456;54.242;10.280;2024-03-08T09:23:22;102063.84;;;3.35;100.00
62418;BME280;48456;54.242;10.280;2024-03-08T09:25:48;102054.94;;;3.51;100.00
62418;BME280;48456;54.242;10.280;2024-03-08T09:28:15;102057.66;;;3.53;100.00
62418;BME280;48456;54.242;10.280;2024-03-08T09:30:42;102054.41;;;3.58;100.00
62418;BME280;48456;54.242;10.280;2024-03-08T09:33:21;102057.44;;;3.68;100.00
62418;BME280;48456;54.242;10.280;2024-03-08T09:35:48;102048.00;;;3.71;100.00
62418;BME280;48456;54.242;10.280;2024-03-08T09:38:14;102052.63;;;3.77;100.00
62418;BME280;48456;54.242;10.280;2024-03-08T09:40:41;102049.97;;;3.97;100.00
62418;BME280;48456;54.242;10.280;2024-03-08T09:43:08;102053.50;;;3.97;100.00
62418;BME280;48456;54.242;10.280;2024-03-08T09:45:35;102048.50;;;4.03;100.00
62418;BME280;48456;54.242;10.280;2024-03-08T09:48:02;102034.34;;;4.20;100.00
62418;BME280;48456;54.242;10.280;2024-03-08T09:50:29;102033.75;;;4.27;100.00
62418;BME280;48456;54.242;10.280;2024-03-08T09:52:56;102029.56;;;4.31;100.00
62418;BME280;48456;54.242;10.280;2024-03-08T09:55:23;102024.88;;;4.23;100.00
62418;BME280;48456;54.242;10.280;2024-03-08T09:57:51;102014.72;;;4.31;100.00
62418;BME280;48456;54.242;10.280;2024-03-08T10:00:40;102023.03;;;4.42;100.00
62418;BME280;48456;54.242;10.280;2024-03-08T10:03:08;102027.75;;;4.51;100.00
62418;BME280;48456;54.242;10.280;2024-03-08T10:05:37;102016.03;;;4.64;100.00
62418;BME280;48456;54.242;10.280;2024-03-08T10:08:04;102011.50;;;4.60;100.00
62418;BME280;48456;54.242;10.280;2024-03-08T10:10:33;102014.88;;;4.57;100.00
62418;BME280;48456;54.242;10.280;2024-03-08T10:13:00;102003.41;;;4.53;100.00
62418;BME280;48456;54.242;10.280;2024-03-08T10:15:27;102010.13;;;4.47;100.00
62418;BME280;48456;54.242;10.280;2024-03-08T10:17:55;102001.41;;;4.48;100.00
62418;BME280;48456;54.242;10.280;2024-03-08T10:20:22;101999.69;;;4.48;100.00
62418;BME280;48456;54.242;10.280;2024-03-08T10:22:50;102001.06;;;4.61;100.00
62418;BME280;48456;54.242;10.280;2024-03-08T10:25:32;102000.72;;;4.75;100.00
62418;BME280;48456;54.242;10.280;2024-03-08T10:27:59;101992.03;;;4.76;100.00
62418;BME280;48456;54.242;10.280;2024-03-08T10:30:25;101988.06;;;4.86;100.00
62418;BME280;48456;54.242;10.280;2024-03-08T10:32:52;101991.41;;;4.83;100.00
62418;BME280;48456;54.242;10.280;2024-03-08T10:35:18;101981.06;;;4.86;100.00
62418;BME280;48456;54.242;10.280;2024-03-08T10:37:48;101986.31;;;4.86;100.00
62418;BME280;48456;54.242;10.280;2024-03-08T10:40:19;101976.88;;;4.91;100.00
62418;BME280;48456;54.242;10.280;2024-03-08T10:47:49;101961.59;;;5.04;99.30
62418;BME280;48456;54.242;10.280;2024-03-08T10:50:18;101974.31;;;5.16;98.72
62418;BME280;48456;54.242;10.280;2024-03-08T10:52:51;101968.78;;;5.32;98.28
62418;BME280;48456;54.242;10.280;2024-03-08T10:55:18;101959.34;;;5.38;96.70
62418;BME280;48456;54.242;10.280;2024-03-08T10:57:46;101960.94;;;5.58;97.67
62418;BME280;48456;54.242;10.280;2024-03-08T11:00:17;101953.16;;;5.62;97.64
62418;BME280;48456;54.242;10.280;2024-03-08T11:02:45;101947.91;;;5.62;97.91
62418;BME280;48456;54.242;10.280;2024-03-08T11:05:31;101950.16;;;5.77;98.76
62418;BME280;48456;54.242;10.280;2024-03-08T11:08:01;101945.72;;;5.74;96.14
62418;BME280;48456;54.242;10.280;2024-03-08T11:10:30;101945.44;;;5.92;97.22
62418;BME280;48456;54.242;10.280;2024-03-08T11:12:56;101939.44;;;5.96;96.56
62418;BME280;48456;54.242;10.280;2024-03-08T11:15:24;101939.63;;;6.01;94.07
62418;BME280;48456;54.242;10.280;2024-03-08T11:17:51;101937.41;;;6.41;93.82
62418;BME280;48456;54.242;10.280;2024-03-08T11:20:18;101937.09;;;7.21;90.71
62418;BME280;48456;54.242;10.280;2024-03-08T11:22:48;101926.56;;;8.25;83.54
62418;BME280;48456;54.242;10.280;2024-03-08T11:28:11;101912.31;;;9.43;74.72
62418;BME280;48456;54.242;10.280;2024-03-08T11:31:27;101927.59;;;9.60;70.41
62418;BME280;48456;54.242;10.280;2024-03-08T11:33:39;101923.03;;;10.05;68.86
62418;BME280;48456;54.242;10.280;2024-03-08T11:36:10;101917.75;;;10.64;66.98
62418;BME280;48456;54.242;10.280;2024-03-08T11:38:43;101920.06;;;11.07;65.69
62418;BME280;48456;54.242;10.280;2024-03-08T11:41:21;101906.38;;;11.52;64.32
62418;BME280;48456;54.242;10.280;2024-03-08T11:43:48;101903.06;;;11.76;61.11
62418;BME280;48456;54.242;10.280;2024-03-08T11:46:16;101896.13;;;11.91;60.14
62418;BME280;48456;54.242;10.280;2024-03-08T11:48:43;101899.72;;;11.99;56.99
62418;BME280;48456;54.242;10.280;2024-03-08T11:51:14;101902.13;;;11.68;56.62
62418;BME280;48456;54.242;10.280;2024-03-08T11:53:41;101889.03;;;11.88;58.21
62418;BME280;48456;54.242;10.280;2024-03-08T11:56:13;101886.22;;;11.71;58.26
62418;BME280;48456;54.242;10.280;2024-03-08T11:58:40;101883.97;;;12.16;57.80
62418;BME280;48456;54.242;10.280;2024-03-08T12:01:07;101876.00;;;12.19;57.39
62418;BME280;48456;54.242;10.280;2024-03-08T12:03:39;101866.03;;;11.90;58.53
62418;BME280;48456;54.242;10.280;2024-03-08T12:06:05;101879.66;;;12.36;58.45
62418;BME280;48456;54.242;10.280;2024-03-08T12:08:33;101884.22;;;12.62;56.69
62418;BME280;48456;54.242;10.280;2024-03-08T12:11:04;101870.88;;;12.55;52.97
62418;BME280;48456;54.242;10.280;2024-03-08T12:13:34;101866.47;;;12.60;56.21
62418;BME280;48456;54.242;10.280;2024-03-08T12:16:02;101857.63;;;12.58;55.24
62418;BME280;48456;54.242;10.280;2024-03-08T12:18:33;101855.88;;;12.57;55.52
62418;BME280;48456;54.242;10.280;2024-03-08T12:21:09;101856.03;;;13.10;53.99
62418;BME280;48456;54.242;10.280;2024-03-08T12:23:48;101849.81;;;13.02;52.46
62418;BME280;48456;54.242;10.280;2024-03-08T12:26:29;101846.19;;;12.80;52.36
62418;BME280;48456;54.242;10.280;2024-03-08T12:29:13;101840.13;;;13.23;54.46
62418;BME280;48456;54.242;10.280;2024-03-08T12:31:41;101835.47;;;12.47;50.74
62418;BME280;48456;54.242;10.280;2024-03-08T12:34:08;101825.91;;;13.10;52.81
62418;BME280;48456;54.242;10.280;2024-03-08T12:36:36;101822.31;;;12.77;54.79
62418;BME280;48456;54.242;10.280;2024-03-08T12:39:02;101822.31;;;12.91;55.48
62418;BME280;48456;54.242;10.280;2024-03-08T12:41:33;101816.13;;;12.84;54.79
62418;BME280;48456;54.242;10.280;2024-03-08T12:44:05;101819.72;;;13.14;52.36
62418;BME280;48456;54.242;10.280;2024-03-08T12:46:33;101813.41;;;12.64;52.26
62418;BME280;48456;54.242;10.280;2024-03-08T12:49:01;101806.44;;;12.97;52.96
62418;BME280;48456;54.242;10.280;2024-03-08T12:51:30;101811.78;;;13.20;53.88